Time;durP1;ratioP1;P1;durP2;ratioP2;P2;SDS_P1;SDS_P2;PMS_P1;PMS_P2;Temp;Humidity;BMP_temperature;BMP_pressure;BME280_temperature;BME280_humidity;BME280_pressure;Samples;Min_cycle;Max_cycle;Signal;HPM_P1;HPM_P2
2023/04/30 00:00:28;;;;;;;36.90;23.17;;;7.80;99.90;;;;;;5052349;28;20506;-44
2023/04/30 00:02:54;;;;;;;41.40;21.63;;;7.70;99.90;;;;;;5052242;28;20039;-45
2023/04/30 00:05:19;;;;;;;35.55;22.80;;;7.70;99.90;;;;;;5052126;28;20033;-44
2023/04/30 00:07:45;;;;;;;35.80;22.65;;;7.70;99.90;;;;;;5058059;28;20021;-47
2023/04/30 00:10:11;;;;;;;36.83;23.45;;;7.70;99.90;;;;;;5072096;28;20024;-51
2023/04/30 00:12:37;;;;;;;36.55;23.02;;;7.70;99.90;;;;;;5072147;28;20013;-55
2023/04/30 00:15:03;;;;;;;39.85;23.55;;;7.60;99.90;;;;;;5072169;28;20044;-51
2023/04/30 00:17:28;;;;;;;36.03;22.88;;;7.60;99.90;;;;;;5071755;28;20541;-53
2023/04/30 00:19:54;;;;;;;37.42;23.88;;;7.60;99.90;;;;;;5071873;28;20039;-52
2023/04/30 00:22:20;;;;;;;39.60;25.08;;;7.60;99.90;;;;;;5071679;28;20434;-52
2023/04/30 00:24:46;;;;;;;42.65;24.00;;;7.60;99.90;;;;;;5071774;28;20017;-53
2023/04/30 00:27:11;;;;;;;37.33;23.95;;;7.60;99.90;;;;;;5070295;28;20020;-51
2023/04/30 00:29:37;;;;;;;49.58;24.98;;;7.60;99.90;;;;;;5071483;28;20364;-52
2023/04/30 00:32:03;;;;;;;40.75;25.23;;;7.70;99.90;;;;;;5071675;28;20424;-53
2023/04/30 00:34:28;;;;;;;39.40;23.30;;;7.70;99.90;;;;;;5071537;28;20039;-45
2023/04/30 00:36:54;;;;;;;38.13;22.85;;;7.70;99.90;;;;;;5071447;28;20028;-53
2023/04/30 00:39:20;;;;;;;40.25;22.13;;;7.60;99.90;;;;;;5071371;28;20028;-45
2023/04/30 00:41:45;;;;;;;33.45;20.35;;;7.50;99.90;;;;;;5071283;28;20032;-46
2023/04/30 00:44:11;;;;;;;31.15;20.20;;;7.50;99.90;;;;;;5071581;28;20028;-53
2023/04/30 00:46:36;;;;;;;35.65;21.70;;;7.40;99.90;;;;;;5071288;28;20017;-48
2023/04/30 00:49:03;;;;;;;32.83;21.15;;;7.30;99.90;;;;;;5071369;28;20028;-47
2023/04/30 00:51:31;;;;;;;33.78;21.17;;;7.30;99.90;;;;;;5071097;28;20073;-47
2023/04/30 00:53:59;;;;;;;34.08;21.10;;;7.30;99.90;;;;;;5071511;28;20027;-47
2023/04/30 00:56:25;;;;;;;33.10;19.73;;;7.20;99.90;;;;;;5070951;28;20028;-53
2023/04/30 00:58:55;;;;;;;34.38;21.45;;;7.20;99.90;;;;;;5071333;28;20028;-49
2023/04/30 01:01:23;;;;;;;39.42;24.02;;;7.20;99.90;;;;;;5070827;28;20040;-49
2023/04/30 01:03:49;;;;;;;37.38;22.35;;;7.20;99.90;;;;;;5069453;28;20017;-45
2023/04/30 01:06:15;;;;;;;37.70;23.17;;;7.20;99.90;;;;;;5057876;28;20543;-51
2023/04/30 01:08:40;;;;;;;39.35;23.48;;;7.10;99.90;;;;;;5071066;28;20104;-48
2023/04/30 01:11:12;;;;;;;41.38;24.17;;;7.10;99.90;;;;;;5070850;28;20368;-51
2023/04/30 01:13:54;;;;;;;42.28;25.35;;;7.10;99.90;;;;;;5071010;28;20044;-53
2023/04/30 01:16:25;;;;;;;46.85;26.42;;;7.10;99.90;;;;;;5070922;28;20375;-46
2023/04/30 01:18:59;;;;;;;50.05;25.75;;;7.20;99.90;;;;;;5071031;28;20013;-47
2023/04/30 01:21:29;;;;;;;42.10;25.73;;;7.20;99.90;;;;;;5070936;28;20037;-45
2023/04/30 01:24:25;;;;;;;44.50;24.42;;;7.10;99.90;;;;;;5071077;28;20174;-44
2023/04/30 01:27:28;;;;;;;38.03;22.23;;;7.10;99.90;;;;;;5070780;28;20024;-44
2023/04/30 01:29:55;;;;;;;33.13;19.88;;;7.10;99.90;;;;;;5070685;28;20032;-45
2023/04/30 01:32:21;;;;;;;32.75;17.95;;;7.00;99.90;;;;;;5070717;28;20043;-45
2023/04/30 01:34:46;;;;;;;27.27;17.05;;;7.00;99.90;;;;;;5070574;28;20396;-44
2023/04/30 01:37:34;;;;;;;29.17;17.65;;;6.90;99.90;;;;;;5070505;28;20025;-45
2023/04/30 01:40:06;;;;;;;29.20;16.77;;;6.90;99.90;;;;;;5070376;28;20056;-44
2023/04/30 01:42:59;;;;;;;27.83;16.60;;;6.90;99.90;;;;;;5070849;28;20142;-47
2023/04/30 01:45:51;;;;;;;29.85;16.88;;;6.80;99.90;;;;;;5070513;28;20047;-44
2023/04/30 01:48:41;;;;;;;35.95;18.67;;;6.80;99.90;;;;;;5070546;28;20099;-49
2023/04/30 01:51:28;;;;;;;35.85;20.25;;;6.80;99.90;;;;;;5069254;28;20021;-49
2023/04/30 01:53:58;;;;;;;37.33;20.88;;;6.80;99.90;;;;;;5070408;28;20100;-45
2023/04/30 01:56:30;;;;;;;39.45;21.52;;;6.80;99.90;;;;;;5070183;28;20533;-45
2023/04/30 01:58:56;;;;;;;34.20;21.10;;;6.80;99.90;;;;;;5070444;28;20017;-48
2023/04/30 02:01:29;;;;;;;38.63;20.20;;;6.70;99.90;;;;;;5070305;28;20044;-46
2023/04/30 02:03:55;;;;;;;34.05;19.10;;;6.70;99.90;;;;;;5068014;28;20032;-48
2023/04/30 02:06:21;;;;;;;37.20;21.48;;;6.60;99.90;;;;;;5058376;28;20036;-53
2023/04/30 02:08:47;;;;;;;39.72;21.75;;;6.60;99.90;;;;;;5070452;28;20046;-50
2023/04/30 02:11:12;;;;;;;42.85;24.00;;;6.60;99.90;;;;;;5070494;28;20024;-52
2023/04/30 02:13:38;;;;;;;42.85;24.00;;;6.50;99.90;;;;;;5070293;28;20039;-51
2023/04/30 02:16:04;;;;;;;45.53;24.90;;;6.60;99.90;;;;;;5070269;28;20078;-49
2023/04/30 02:18:30;;;;;;;42.60;22.95;;;6.60;99.90;;;;;;5072825;28;20012;-49
2023/04/30 02:20:55;;;;;;;49.58;27.55;;;6.60;99.90;;;;;;5073829;28;20483;-48
2023/04/30 02:23:21;;;;;;;49.72;25.52;;;6.60;99.90;;;;;;5072885;28;20032;-50
2023/04/30 02:25:46;;;;;;;44.85;23.98;;;6.70;99.90;;;;;;5073853;28;20468;-48
2023/04/30 02:28:12;;;;;;;46.47;25.25;;;6.60;99.90;;;;;;5067402;28;20024;-54
2023/04/30 02:30:38;;;;;;;45.95;24.60;;;6.60;99.90;;;;;;5056405;28;20108;-56
2023/04/30 02:33:04;;;;;;;41.88;22.83;;;6.50;99.90;;;;;;5059258;28;20025;-52
2023/04/30 02:35:29;;;;;;;44.95;23.92;;;6.50;99.90;;;;;;5062152;28;20025;-54
2023/04/30 02:37:55;;;;;;;39.38;23.45;;;6.50;99.90;;;;;;5066868;28;20043;-57
2023/04/30 02:40:20;;;;;;;40.15;22.67;;;6.50;99.90;;;;;;5060773;28;20507;-46
2023/04/30 02:42:47;;;;;;;43.75;23.25;;;6.50;99.90;;;;;;5070896;28;20036;-47
2023/04/30 02:45:12;;;;;;;42.88;23.55;;;6.40;99.90;;;;;;5059879;28;20021;-54
2023/04/30 02:47:38;;;;;;;38.92;22.52;;;6.50;99.90;;;;;;5070248;28;20032;-52
2023/04/30 02:50:04;;;;;;;44.83;23.25;;;6.40;99.90;;;;;;5061926;28;20116;-53
2023/04/30 02:52:30;;;;;;;40.92;22.65;;;6.40;99.90;;;;;;5053441;28;20025;-51
2023/04/30 02:54:56;;;;;;;41.65;22.40;;;6.40;99.90;;;;;;5053317;28;20506;-56
2023/04/30 02:57:22;;;;;;;40.33;21.30;;;6.40;99.90;;;;;;5053488;28;20021;-51
2023/04/30 02:59:47;;;;;;;41.40;22.55;;;6.40;99.90;;;;;;5053341;28;20116;-55
2023/04/30 03:02:13;;;;;;;40.72;22.20;;;6.30;99.90;;;;;;5053232;28;20116;-47
2023/04/30 03:04:39;;;;;;;41.40;21.15;;;6.30;99.90;;;;;;5053285;28;20040;-54
2023/04/30 03:07:05;;;;;;;37.13;20.33;;;6.30;99.90;;;;;;5067259;28;20365;-45
2023/04/30 03:09:31;;;;;;;40.47;20.60;;;6.20;99.90;;;;;;5073257;28;20415;-48
2023/04/30 03:11:57;;;;;;;34.72;19.88;;;6.20;99.90;;;;;;5073257;28;20021;-44
2023/04/30 03:14:22;;;;;;;35.80;19.50;;;6.20;99.90;;;;;;5073098;28;20028;-47
2023/04/30 03:16:48;;;;;;;37.30;19.10;;;6.20;99.90;;;;;;5073190;28;20025;-46
2023/04/30 03:19:13;;;;;;;38.53;19.55;;;6.10;99.90;;;;;;5072819;28;20020;-50
2023/04/30 03:21:40;;;;;;;40.92;19.65;;;6.10;99.90;;;;;;5073221;28;20109;-51
2023/04/30 03:24:05;;;;;;;37.28;19.83;;;6.10;99.90;;;;;;5072977;28;20025;-48
2023/04/30 03:26:31;;;;;;;38.80;20.05;;;6.10;99.90;;;;;;5072985;28;20024;-53
2023/04/30 03:28:57;;;;;;;40.75;19.10;;;6.10;99.90;;;;;;5058799;28;20100;-54
2023/04/30 03:31:22;;;;;;;35.40;19.17;;;6.10;99.90;;;;;;5052767;28;20099;-49
2023/04/30 03:33:48;;;;;;;36.83;19.27;;;6.10;99.90;;;;;;5056006;28;20037;-56
2023/04/30 03:36:14;;;;;;;34.97;18.88;;;6.00;99.90;;;;;;5070672;28;20082;-45
2023/04/30 03:38:40;;;;;;;35.65;17.85;;;5.90;99.90;;;;;;5058498;28;20025;-44
2023/04/30 03:41:06;;;;;;;33.88;18.35;;;5.90;99.90;;;;;;5072606;28;20044;-44
2023/04/30 03:43:32;;;;;;;37.92;18.60;;;5.80;99.90;;;;;;5072736;28;20025;-44
2023/04/30 03:45:58;;;;;;;35.40;17.98;;;5.80;99.90;;;;;;5065570;28;20037;-44
2023/04/30 03:48:24;;;;;;;32.92;17.92;;;5.80;99.90;;;;;;5065432;28;20021;-47
2023/04/30 03:50:49;;;;;;;32.42;17.27;;;5.70;99.90;;;;;;5072385;28;20175;-45
2023/04/30 03:53:15;;;;;;;34.00;17.88;;;5.70;99.90;;;;;;5072490;28;20052;-48
2023/04/30 03:55:41;;;;;;;30.80;17.70;;;5.70;99.90;;;;;;5072390;28;20036;-50
2023/04/30 03:58:07;;;;;;;34.65;17.80;;;5.70;99.90;;;;;;5072567;28;20063;-51
2023/04/30 04:00:33;;;;;;;33.45;17.45;;;5.70;99.90;;;;;;5072144;28;20048;-52
2023/04/30 04:02:58;;;;;;;33.58;17.65;;;5.60;99.90;;;;;;5065730;28;20025;-48
2023/04/30 04:05:25;;;;;;;35.40;18.30;;;5.70;99.90;;;;;;5063310;28;20040;-47
2023/04/30 04:07:50;;;;;;;31.70;17.58;;;5.70;99.90;;;;;;5071845;28;20128;-49
2023/04/30 04:10:16;;;;;;;30.52;15.60;;;5.70;99.90;;;;;;5072175;28;20031;-46
2023/04/30 04:12:42;;;;;;;30.70;16.50;;;5.70;99.90;;;;;;5071985;28;20056;-47
2023/04/30 04:15:08;;;;;;;30.67;16.35;;;5.60;99.90;;;;;;5071937;28;20020;-44
2023/04/30 04:17:33;;;;;;;34.05;16.33;;;5.60;99.90;;;;;;5071770;28;20031;-49
2023/04/30 04:19:59;;;;;;;31.58;15.63;;;5.70;99.90;;;;;;5071946;28;20103;-46
2023/04/30 04:22:25;;;;;;;31.17;15.95;;;5.60;99.90;;;;;;5071969;28;20130;-48
2023/04/30 04:24:50;;;;;;;27.42;14.80;;;5.60;99.90;;;;;;5071715;28;20155;-47
2023/04/30 04:27:16;;;;;;;28.42;14.75;;;5.60;99.90;;;;;;5071792;28;20028;-49
2023/04/30 04:29:41;;;;;;;25.75;13.30;;;5.50;99.90;;;;;;5071774;28;20074;-48
2023/04/30 04:32:09;;;;;;;26.27;14.18;;;5.50;99.90;;;;;;5071222;28;20017;-45
2023/04/30 04:34:35;;;;;;;23.25;14.25;;;5.50;99.90;;;;;;5056861;28;20510;-44
2023/04/30 04:37:00;;;;;;;24.98;13.32;;;5.50;99.90;;;;;;5052091;28;20427;-47
2023/04/30 04:39:26;;;;;;;27.05;13.68;;;5.50;99.90;;;;;;5062907;28;20050;-47
2023/04/30 04:41:52;;;;;;;29.17;14.38;;;5.60;99.90;;;;;;5070493;28;20039;-50
2023/04/30 04:44:18;;;;;;;29.73;14.65;;;5.50;99.90;;;;;;5071406;28;20021;-46
2023/04/30 04:46:44;;;;;;;30.35;14.98;;;5.60;99.90;;;;;;5071215;28;20032;-47
2023/04/30 04:49:10;;;;;;;29.63;15.25;;;5.60;99.90;;;;;;5071601;28;20468;-50
2023/04/30 04:51:35;;;;;;;27.63;13.70;;;5.70;99.90;;;;;;5071429;28;20039;-53
2023/04/30 04:54:01;;;;;;;27.20;13.57;;;5.70;99.90;;;;;;5071384;28;20032;-46
2023/04/30 04:56:27;;;;;;;26.02;13.77;;;5.70;99.90;;;;;;5071379;28;20028;-52
2023/04/30 04:58:52;;;;;;;28.50;13.82;;;5.80;99.90;;;;;;5070813;28;20411;-47
2023/04/30 05:01:18;;;;;;;29.85;14.77;;;5.80;99.90;;;;;;5071096;28;20032;-45
2023/04/30 05:03:43;;;;;;;26.83;14.35;;;5.90;99.90;;;;;;5070748;28;20027;-47
2023/04/30 05:06:09;;;;;;;32.17;13.50;;;5.90;99.90;;;;;;5070955;28;20044;-44
2023/04/30 05:08:35;;;;;;;29.92;13.98;;;5.90;99.90;;;;;;5070516;28;20032;-47
2023/04/30 05:11:00;;;;;;;29.27;14.30;;;6.00;99.90;;;;;;5051301;28;20021;-51
2023/04/30 05:13:26;;;;;;;29.35;14.10;;;6.00;99.90;;;;;;5050940;28;20039;-50
2023/04/30 05:15:52;;;;;;;28.38;15.27;;;6.10;99.90;;;;;;5050663;28;20384;-48
2023/04/30 05:18:19;;;;;;;26.65;13.73;;;6.10;99.90;;;;;;5050756;28;20385;-53
2023/04/30 05:20:44;;;;;;;24.85;13.50;;;6.20;99.90;;;;;;5050483;28;20055;-44
2023/04/30 05:23:11;;;;;;;26.00;12.98;;;6.30;99.90;;;;;;5050728;28;20021;-55
2023/04/30 05:25:37;;;;;;;24.70;12.50;;;6.40;99.90;;;;;;5050655;28;20025;-50
2023/04/30 05:28:03;;;;;;;21.10;12.07;;;6.50;99.90;;;;;;5050783;28;20526;-53
2023/04/30 05:30:29;;;;;;;22.23;12.82;;;6.60;99.90;;;;;;5050385;28;20543;-48
2023/04/30 05:32:56;;;;;;;25.13;14.00;;;6.60;99.90;;;;;;5050937;28;20103;-49
2023/04/30 05:35:22;;;;;;;24.85;13.98;;;6.70;99.90;;;;;;5050595;28;20105;-45
2023/04/30 05:37:47;;;;;;;21.05;12.70;;;6.80;99.90;;;;;;5062711;28;20105;-46
2023/04/30 05:40:13;;;;;;;19.50;11.73;;;6.90;99.90;;;;;;5070287;28;20041;-46
2023/04/30 05:42:39;;;;;;;22.27;12.43;;;7.00;99.90;;;;;;5070492;28;20036;-51
2023/04/30 05:45:07;;;;;;;24.63;13.55;;;7.20;99.90;;;;;;5070445;28;20037;-48
2023/04/30 05:47:32;;;;;;;23.33;13.30;;;7.40;99.90;;;;;;5070750;28;20024;-48
2023/04/30 05:49:58;;;;;;;24.55;13.50;;;7.50;99.90;;;;;;5070478;28;20032;-49
2023/04/30 05:52:24;;;;;;;23.05;13.23;;;7.60;99.90;;;;;;5070508;28;20029;-46
2023/04/30 05:54:49;;;;;;;22.02;12.80;;;7.70;99.90;;;;;;5070630;28;20437;-49
2023/04/30 05:57:15;;;;;;;22.90;12.95;;;7.80;99.90;;;;;;5070299;28;20021;-54
2023/04/30 05:59:41;;;;;;;23.10;13.43;;;8.00;99.90;;;;;;5070551;28;20032;-58
2023/04/30 06:02:06;;;;;;;20.52;12.38;;;8.10;99.90;;;;;;5053574;28;20396;-48
2023/04/30 06:04:32;;;;;;;23.45;12.90;;;8.20;99.90;;;;;;5058789;28;20052;-51
2023/04/30 06:06:58;;;;;;;26.15;13.45;;;8.40;99.90;;;;;;5056518;28;20029;-46
2023/04/30 06:09:24;;;;;;;24.50;14.25;;;8.70;99.90;;;;;;5050367;28;20375;-52
2023/04/30 06:11:50;;;;;;;20.67;12.30;;;8.90;99.90;;;;;;5065152;28;20021;-46
2023/04/30 06:14:17;;;;;;;21.40;12.10;;;9.10;99.90;;;;;;5051662;28;20023;-52
2023/04/30 06:16:44;;;;;;;20.90;13.07;;;9.70;99.90;;;;;;5049037;28;20085;-55
2023/04/30 06:19:10;;;;;;;17.73;11.70;;;10.70;99.90;;;;;;5049973;28;20037;-45
2023/04/30 06:21:36;;;;;;;16.23;10.90;;;12.10;99.90;;;;;;5050318;28;20044;-46
2023/04/30 06:24:02;;;;;;;15.63;10.48;;;13.50;99.90;;;;;;5049944;28;20017;-48
2023/04/30 06:26:28;;;;;;;16.25;11.15;;;14.50;99.90;;;;;;5058835;28;20073;-51
2023/04/30 06:28:53;;;;;;;15.38;10.77;;;15.90;99.90;;;;;;5049867;28;20032;-50
2023/04/30 06:31:20;;;;;;;15.63;11.70;;;16.60;99.90;;;;;;5050248;28;20103;-45
2023/04/30 06:33:45;;;;;;;12.75;10.10;;;17.20;99.90;;;;;;5049943;28;20033;-55
2023/04/30 06:36:12;;;;;;;14.95;11.27;;;17.60;99.90;;;;;;5050074;28;20031;-45
2023/04/30 06:38:37;;;;;;;14.05;11.07;;;18.10;99.90;;;;;;5050987;28;20040;-50
2023/04/30 06:41:03;;;;;;;16.52;11.65;;;18.60;99.90;;;;;;5057174;28;20427;-51
2023/04/30 06:43:29;;;;;;;16.70;11.90;;;19.00;99.70;;;;;;5059628;28;20138;-46
2023/04/30 06:45:54;;;;;;;17.02;12.80;;;19.50;97.30;;;;;;5058190;28;20025;-53
2023/04/30 06:48:20;;;;;;;15.73;11.30;;;19.70;95.20;;;;;;5055135;28;20461;-50
2023/04/30 06:50:46;;;;;;;18.60;12.32;;;20.60;95.90;;;;;;5051035;28;20447;-45
2023/04/30 06:53:12;;;;;;;13.93;11.30;;;21.20;92.90;;;;;;5061140;28;20031;-45
2023/04/30 06:55:37;;;;;;;14.40;11.45;;;21.50;89.00;;;;;;5053286;28;20063;-45
2023/04/30 06:58:04;;;;;;;14.88;11.88;;;21.70;88.50;;;;;;5058978;28;20053;-45
2023/04/30 07:00:31;;;;;;;13.15;11.02;;;21.80;84.80;;;;;;5049853;28;20510;-48
2023/04/30 07:02:59;;;;;;;13.18;10.63;;;22.00;87.70;;;;;;5050041;28;20102;-48
2023/04/30 07:05:25;;;;;;;15.60;12.38;;;22.30;83.80;;;;;;5051870;28;20028;-50
2023/04/30 07:07:51;;;;;;;14.13;11.55;;;22.50;80.90;;;;;;5057455;28;20029;-48
2023/04/30 07:10:17;;;;;;;17.35;13.13;;;22.30;80.00;;;;;;5052337;28;20078;-55
2023/04/30 07:12:43;;;;;;;17.75;13.35;;;22.30;81.60;;;;;;5061950;28;20017;-52
2023/04/30 07:15:09;;;;;;;18.77;13.77;;;21.90;78.30;;;;;;5051373;28;20025;-45
2023/04/30 07:17:35;;;;;;;18.20;14.45;;;22.00;78.60;;;;;;5061491;28;20025;-49
2023/04/30 07:20:03;;;;;;;18.08;13.13;;;22.20;76.70;;;;;;5051170;28;20032;-49
2023/04/30 07:22:29;;;;;;;17.80;14.45;;;22.60;78.10;;;;;;5062630;28;20040;-48
2023/04/30 07:24:55;;;;;;;17.48;14.18;;;23.00;72.40;;;;;;5051304;28;20070;-52
2023/04/30 07:27:20;;;;;;;22.30;15.55;;;22.60;75.00;;;;;;5058415;28;20116;-45
2023/04/30 07:29:46;;;;;;;20.10;15.02;;;23.10;72.30;;;;;;5052711;28;20021;-49
2023/04/30 07:32:11;;;;;;;18.67;14.85;;;23.50;71.80;;;;;;5054141;28;20017;-45
2023/04/30 07:34:38;;;;;;;21.23;16.17;;;23.90;71.70;;;;;;5052732;28;20029;-46
2023/04/30 07:37:03;;;;;;;19.83;15.13;;;23.70;67.90;;;;;;5054350;28;20036;-45
2023/04/30 07:39:29;;;;;;;18.92;14.98;;;24.20;67.40;;;;;;5064540;28;20029;-47
2023/04/30 07:41:55;;;;;;;20.65;16.00;;;24.90;66.00;;;;;;5072273;28;20040;-48
2023/04/30 07:44:21;;;;;;;22.35;17.02;;;24.00;63.90;;;;;;5072576;28;20024;-48
2023/04/30 07:46:46;;;;;;;22.95;15.50;;;22.90;64.00;;;;;;5072498;28;20495;-52
2023/04/30 07:49:12;;;;;;;20.10;14.18;;;23.50;65.20;;;;;;5072699;28;20023;-47
2023/04/30 07:51:38;;;;;;;20.75;16.02;;;24.30;64.50;;;;;;5072664;28;20110;-50
2023/04/30 07:54:04;;;;;;;19.65;15.20;;;23.60;62.90;;;;;;5072405;28;20074;-45
2023/04/30 07:56:29;;;;;;;20.83;14.75;;;23.60;65.70;;;;;;5072433;28;20376;-48
2023/04/30 07:58:55;;;;;;;20.77;15.50;;;24.20;69.80;;;;;;5072276;28;20023;-47
2023/04/30 08:01:21;;;;;;;19.88;14.70;;;24.90;64.20;;;;;;5072248;28;20079;-46
2023/04/30 08:03:46;;;;;;;21.90;15.15;;;24.90;68.40;;;;;;5072077;28;20058;-48
2023/04/30 08:06:12;;;;;;;24.15;17.63;;;25.60;64.10;;;;;;5072363;28;20019;-47
2023/04/30 08:08:38;;;;;;;20.83;16.75;;;25.80;58.40;;;;;;5072287;28;20142;-47
2023/04/30 08:11:04;;;;;;;22.92;16.02;;;25.10;60.20;;;;;;5071733;28;20027;-45
2023/04/30 08:13:29;;;;;;;25.10;18.30;;;24.90;62.90;;;;;;5072142;28;20028;-45
2023/04/30 08:15:55;;;;;;;20.23;16.33;;;24.90;61.60;;;;;;5071972;28;20021;-45
2023/04/30 08:18:21;;;;;;;19.73;16.63;;;24.70;61.30;;;;;;5072125;28;20028;-50
2023/04/30 08:20:47;;;;;;;23.23;18.17;;;24.30;67.20;;;;;;5071859;28;20051;-45
2023/04/30 08:23:13;;;;;;;20.23;17.10;;;24.50;60.80;;;;;;5072106;28;20107;-54
2023/04/30 08:25:38;;;;;;;20.77;17.58;;;24.60;64.40;;;;;;5071930;28;20100;-48
2023/04/30 08:28:05;;;;;;;20.52;17.02;;;24.60;61.00;;;;;;5070591;28;20376;-47
2023/04/30 08:30:31;;;;;;;22.27;17.67;;;25.00;63.60;;;;;;5072033;28;20068;-56
2023/04/30 08:32:56;;;;;;;23.30;19.50;;;25.30;61.60;;;;;;5071802;28;20481;-51
2023/04/30 08:35:22;;;;;;;21.05;18.48;;;25.10;57.60;;;;;;5071610;28;20031;-47
2023/04/30 08:37:48;;;;;;;21.38;18.52;;;24.40;59.10;;;;;;5059537;28;20112;-49
2023/04/30 08:40:15;;;;;;;23.88;19.73;;;24.20;60.00;;;;;;5069454;28;20573;-48
2023/04/30 08:42:45;;;;;;;22.98;19.38;;;23.90;62.10;;;;;;5071142;28;20090;-47
2023/04/30 08:45:13;;;;;;;24.58;18.85;;;23.90;61.30;;;;;;5071357;28;20028;-45
2023/04/30 08:47:39;;;;;;;23.77;19.55;;;23.90;65.10;;;;;;5071531;28;20090;-51
2023/04/30 08:50:06;;;;;;;25.08;19.20;;;24.10;61.80;;;;;;5071318;28;20040;-50
2023/04/30 08:52:34;;;;;;;23.95;19.40;;;24.40;60.50;;;;;;5071469;28;20051;-46
2023/04/30 08:55:00;;;;;;;;;;;24.00;61.20;;;;;;5070731;28;20032;-51
2023/04/30 08:57:26;;;;;;;23.15;18.00;;;23.70;63.70;;;;;;5071220;28;20329;-51
2023/04/30 08:59:53;;;;;;;22.25;18.65;;;24.70;62.50;;;;;;5071303;28;20503;-47
2023/04/30 09:02:19;;;;;;;21.00;17.23;;;25.10;58.60;;;;;;5071027;28;20036;-50
2023/04/30 09:04:45;;;;;;;23.77;18.65;;;25.50;61.10;;;;;;5071113;28;20506;-49
2023/04/30 09:07:13;;;;;;;22.70;17.90;;;25.30;58.70;;;;;;5070895;28;20387;-44
2023/04/30 09:09:39;;;;;;;21.67;17.37;;;25.10;57.50;;;;;;5071392;28;20052;-52
2023/04/30 09:12:19;;;;;;;24.33;17.98;;;25.10;62.00;;;;;;5070994;28;20024;-50
2023/04/30 09:15:03;;;;;;;21.88;17.58;;;25.00;59.60;;;;;;5071026;28;20479;-47
2023/04/30 09:17:29;;;;;;;23.00;16.98;;;24.80;58.50;;;;;;5070971;28;20056;-46
2023/04/30 09:20:07;;;;;;;21.02;17.98;;;24.40;60.30;;;;;;5070831;28;20087;-48
2023/04/30 09:22:34;;;;;;;19.23;17.10;;;23.80;61.20;;;;;;5070966;28;20040;-48
2023/04/30 09:25:00;;;;;;;19.98;17.70;;;23.50;60.70;;;;;;5070760;28;20029;-46
2023/04/30 09:27:26;;;;;;;20.45;16.38;;;24.30;59.20;;;;;;5070229;28;20043;-46
2023/04/30 09:29:51;;;;;;;19.35;16.27;;;24.00;58.50;;;;;;5070906;28;20023;-46
2023/04/30 09:32:18;;;;;;;20.27;16.83;;;24.30;59.10;;;;;;5070756;28;20503;-51
2023/04/30 09:34:43;;;;;;;18.88;15.55;;;23.70;59.20;;;;;;5070899;28;20066;-48
2023/04/30 09:37:10;;;;;;;19.77;16.85;;;23.60;60.90;;;;;;5063907;28;20025;-52
2023/04/30 09:39:47;;;;;;;17.35;14.50;;;23.20;58.10;;;;;;5062227;28;20361;-52
2023/04/30 09:42:13;;;;;;;21.50;17.33;;;23.70;61.20;;;;;;5060098;28;20037;-49
2023/04/30 09:44:40;;;;;;;20.65;15.35;;;22.90;59.20;;;;;;5070716;28;20028;-51
2023/04/30 09:47:17;;;;;;;21.50;16.20;;;22.30;63.40;;;;;;5070516;28;20468;-46
2023/04/30 09:49:52;;;;;;;23.42;16.73;;;22.10;61.20;;;;;;5070693;28;20036;-45
2023/04/30 09:52:18;;;;;;;21.55;15.25;;;22.00;61.40;;;;;;5070529;28;20032;-47
2023/04/30 09:54:45;;;;;;;19.63;15.07;;;22.40;62.50;;;;;;5070518;28;20064;-45
2023/04/30 09:57:13;;;;;;;21.10;15.43;;;22.70;61.60;;;;;;5070365;28;20023;-46
2023/04/30 09:59:43;;;;;;;18.93;14.47;;;22.70;60.80;;;;;;5070529;28;20028;-55
2023/04/30 10:02:09;;;;;;;19.95;14.85;;;22.50;60.50;;;;;;5069937;28;20056;-49
2023/04/30 10:04:37;;;;;;;17.95;14.07;;;22.80;59.60;;;;;;5069358;28;20100;-50
2023/04/30 10:07:08;;;;;;;18.88;14.27;;;23.40;59.70;;;;;;5070088;28;20482;-49
2023/04/30 10:09:47;;;;;;;19.48;13.75;;;23.30;60.30;;;;;;5056672;28;20506;-49
2023/04/30 10:12:14;;;;;;;17.98;13.40;;;23.70;60.00;;;;;;5062785;28;20025;-53
2023/04/30 10:14:50;;;;;;;16.63;13.88;;;24.00;58.00;;;;;;5055983;28;20029;-48
2023/04/30 10:17:17;;;;;;;16.30;13.07;;;24.30;61.90;;;;;;5057293;28;20029;-46
2023/04/30 10:19:47;;;;;;;13.88;11.55;;;24.30;60.20;;;;;;5050151;28;20447;-50
2023/04/30 10:22:13;;;;;;;16.23;12.52;;;25.40;61.80;;;;;;5062098;28;20090;-49
2023/04/30 10:24:40;;;;;;;15.80;12.80;;;26.10;55.40;;;;;;5049268;28;20017;-52
2023/04/30 10:27:06;;;;;;;16.70;11.88;;;25.50;55.40;;;;;;5049845;28;20037;-50
2023/04/30 10:29:32;;;;;;;16.95;12.90;;;25.00;56.20;;;;;;5050018;28;20075;-51
2023/04/30 10:32:00;;;;;;;18.17;13.18;;;25.50;54.40;;;;;;5050112;28;20396;-49
2023/04/30 10:34:58;;;;;;;19.80;13.93;;;25.10;54.70;;;;;;5051650;28;20025;-50
2023/04/30 10:37:58;;;;;;;16.40;13.10;;;24.50;60.10;;;;;;5050079;28;20476;-51
2023/04/30 10:40:26;;;;;;;15.52;12.25;;;23.80;55.00;;;;;;5047422;28;20090;-49
2023/04/30 10:42:56;;;;;;;14.98;10.10;;;23.10;59.10;;;;;;5073108;28;20029;-47
2023/04/30 10:45:42;;;;;;;15.50;11.80;;;24.20;56.90;;;;;;5059404;28;20033;-53
2023/04/30 10:48:09;;;;;;;14.68;11.70;;;24.80;56.70;;;;;;5068271;28;20089;-47
2023/04/30 10:50:42;;;;;;;15.15;10.27;;;24.90;53.50;;;;;;5060949;28;20025;-51
2023/04/30 10:53:16;;;;;;;12.75;10.48;;;24.80;56.40;;;;;;5057066;28;20116;-54
2023/04/30 10:55:48;;;;;;;13.40;10.25;;;24.90;57.00;;;;;;5058142;28;20032;-47
2023/04/30 10:58:24;;;;;;;13.73;10.50;;;25.60;55.00;;;;;;5058863;28;20027;-52
2023/04/30 11:00:59;;;;;;;16.20;11.43;;;25.70;55.80;;;;;;5053401;28;20032;-47
2023/04/30 11:03:25;;;;;;;14.68;10.90;;;25.40;53.80;;;;;;5053213;28;20043;-48
2023/04/30 11:05:50;;;;;;;13.40;10.07;;;25.10;57.90;;;;;;5068568;28;20024;-48
2023/04/30 11:08:16;;;;;;;12.52;10.43;;;25.40;54.40;;;;;;5070936;28;20035;-52
2023/04/30 11:10:58;;;;;;;12.77;8.52;;;24.70;56.40;;;;;;5061418;28;20379;-55
2023/04/30 11:13:25;;;;;;;15.93;10.35;;;24.90;56.40;;;;;;5057875;28;20037;-49
2023/04/30 11:15:51;;;;;;;17.35;11.93;;;24.70;54.90;;;;;;5072805;28;20025;-47
2023/04/30 11:18:18;;;;;;;14.82;11.45;;;24.40;54.40;;;;;;5066144;28;20025;-47
2023/04/30 11:20:53;;;;;;;14.50;10.88;;;24.30;54.60;;;;;;5069006;28;20392;-49
2023/04/30 11:23:23;;;;;;;14.45;10.90;;;24.60;55.00;;;;;;5068406;28;20040;-50
2023/04/30 11:25:48;;;;;;;14.55;10.85;;;24.60;57.50;;;;;;5059033;28;20158;-52
2023/04/30 11:28:20;;;;;;;16.30;11.55;;;24.30;54.70;;;;;;5053024;28;20116;-47
2023/04/30 11:30:58;;;;;;;16.60;11.25;;;23.70;56.00;;;;;;5065482;28;20021;-47
2023/04/30 11:33:26;;;;;;;16.20;10.53;;;23.70;58.20;;;;;;5057870;28;20075;-47
2023/04/30 11:35:53;;;;;;;15.98;11.00;;;23.20;56.90;;;;;;5052689;28;20281;-48
2023/04/30 11:38:29;;;;;;;15.35;11.77;;;23.00;57.40;;;;;;5052292;28;20025;-53
2023/04/30 11:40:56;;;;;;;16.75;11.43;;;22.80;58.00;;;;;;5071360;28;20040;-47
2023/04/30 11:43:27;;;;;;;18.00;11.65;;;23.30;59.40;;;;;;5056702;28;20040;-55
2023/04/30 11:46:14;;;;;;;17.55;11.35;;;23.60;59.20;;;;;;5064010;28;20020;-51
2023/04/30 11:48:46;;;;;;;16.13;12.45;;;23.80;60.40;;;;;;5053018;28;20033;-52
2023/04/30 11:51:22;;;;;;;15.98;11.90;;;23.40;57.30;;;;;;5055596;28;20400;-47
2023/04/30 11:53:50;;;;;;;15.38;11.65;;;23.40;56.60;;;;;;5054548;28;20020;-47
2023/04/30 11:56:24;;;;;;;18.25;12.32;;;23.60;57.10;;;;;;5058313;28;20021;-45
2023/04/30 11:58:51;;;;;;;17.98;11.88;;;23.70;59.40;;;;;;5060946;28;20092;-49
2023/04/30 12:01:18;;;;;;;17.20;12.50;;;23.80;57.60;;;;;;5054020;28;20029;-44
2023/04/30 12:03:47;;;;;;;18.23;13.20;;;23.10;58.40;;;;;;5056592;28;20029;-49
2023/04/30 12:06:33;;;;;;;18.90;13.07;;;22.80;58.40;;;;;;5067181;28;20367;-51
2023/04/30 12:09:00;;;;;;;18.48;13.38;;;22.20;59.50;;;;;;5071877;28;20039;-49
2023/04/30 12:11:30;;;;;;;18.40;13.50;;;22.40;59.80;;;;;;5071911;28;20511;-52
2023/04/30 12:14:06;;;;;;;18.10;12.57;;;22.30;59.70;;;;;;5072249;28;20037;-50
2023/04/30 12:16:51;;;;;;;17.05;12.82;;;22.60;58.90;;;;;;5070376;28;20020;-47
2023/04/30 12:19:18;;;;;;;17.40;12.32;;;22.80;58.20;;;;;;5055168;28;20040;-49
2023/04/30 12:21:48;;;;;;;18.15;11.98;;;22.50;58.50;;;;;;5054807;28;20052;-52
2023/04/30 12:24:18;;;;;;;14.88;11.02;;;22.70;59.00;;;;;;5052992;28;20032;-47
2023/04/30 12:26:44;;;;;;;17.67;11.85;;;22.90;60.40;;;;;;5053918;28;20337;-47
2023/04/30 12:29:17;;;;;;;17.40;11.05;;;23.10;63.10;;;;;;5056340;28;20029;-48
2023/04/30 12:31:43;;;;;;;16.48;11.48;;;23.80;63.60;;;;;;5053474;28;20088;-53
2023/04/30 12:34:12;;;;;;;16.80;10.93;;;24.00;58.80;;;;;;5051847;28;20074;-51
2023/04/30 12:36:41;;;;;;;;;;;24.60;58.00;;;;;;5052130;28;20120;-49